createdAt,value
2023-02-25T00:02:47.540Z,5.67
2023-02-25T00:05:49.410Z,5.60
2023-02-25T00:08:52.409Z,5.58
2023-02-25T00:11:54.189Z,5.53
2023-02-25T00:14:55.811Z,5.48
2023-02-25T00:17:57.437Z,5.47
2023-02-25T00:20:59.598Z,5.46
2023-02-25T00:24:15.222Z,5.45
2023-02-25T00:27:17.550Z,5.46
2023-02-25T00:30:19.181Z,5.46
2023-02-25T00:33:20.629Z,5.47
2023-02-25T00:36:24.957Z,5.46
2023-02-25T00:39:26.727Z,5.46
2023-02-25T00:42:28.228Z,5.44
2023-02-25T00:45:29.936Z,5.48
2023-02-25T00:48:31.520Z,5.55
2023-02-25T00:51:33.317Z,5.59
2023-02-25T00:54:34.892Z,5.66
2023-02-25T00:57:36.396Z,5.71
2023-02-25T01:00:51.356Z,5.74
2023-02-25T01:03:55.327Z,5.79
2023-02-25T01:06:57.545Z,5.84
2023-02-25T01:09:59.129Z,5.93
2023-02-25T01:13:00.642Z,5.96
2023-02-25T01:16:02.351Z,5.96
2023-02-25T01:19:09.795Z,5.95
2023-02-25T01:22:11.854Z,5.90
2023-02-25T01:25:14.062Z,5.80
2023-02-25T01:28:15.703Z,5.67
2023-02-25T01:31:18.200Z,5.50
2023-02-25T01:34:23.051Z,5.32
2023-02-25T01:37:25.045Z,5.19
2023-02-25T01:40:26.643Z,5.09
2023-02-25T01:43:29.164Z,5.03
2023-02-25T01:46:31.085Z,4.99
2023-02-25T01:49:39.113Z,4.96
2023-02-25T01:52:41.278Z,4.92
2023-02-25T01:55:43.247Z,4.83
2023-02-25T01:58:45.058Z,4.75
2023-02-25T02:01:47.020Z,4.68
2023-02-25T02:04:49.808Z,4.62
2023-02-25T02:07:51.384Z,4.57
2023-02-25T02:10:53.109Z,4.55
2023-02-25T02:13:55.416Z,4.52
2023-02-25T02:17:28.962Z,4.49
2023-02-25T02:21:03.202Z,4.49
2023-02-25T02:24:42.964Z,4.49
2023-02-25T02:28:03.367Z,4.47
2023-02-25T02:31:16.663Z,4.45
2023-02-25T02:34:42.568Z,4.41
2023-02-25T02:37:57.088Z,4.34
2023-02-25T02:41:25.565Z,4.25
2023-02-25T02:44:31.192Z,4.16
2023-02-25T02:47:52.656Z,4.06
2023-02-25T02:50:58.315Z,3.98
2023-02-25T02:54:01.405Z,3.89
2023-02-25T02:57:04.117Z,3.80
2023-02-25T03:00:10.726Z,3.78
2023-02-25T03:03:29.103Z,3.74
2023-02-25T03:06:34.198Z,3.75
2023-02-25T03:09:40.234Z,3.84
2023-02-25T03:12:41.786Z,3.87
2023-02-25T03:15:44.433Z,3.90
2023-02-25T03:19:01.785Z,3.93
2023-02-25T03:22:13.214Z,3.94
2023-02-25T03:25:19.417Z,3.91
2023-02-25T03:28:30.524Z,3.91
2023-02-25T03:31:41.070Z,3.91
2023-02-25T03:34:46.649Z,3.89
2023-02-25T03:37:51.322Z,3.87
2023-02-25T03:40:53.885Z,3.87
2023-02-25T03:43:56.789Z,3.87
2023-02-25T03:47:00.022Z,3.86
2023-02-25T03:50:14.685Z,3.87
2023-02-25T03:53:16.495Z,3.87
2023-02-25T03:56:18.363Z,3.87
2023-02-25T03:59:19.867Z,3.86
2023-02-25T04:02:27.015Z,3.85
2023-02-25T04:05:28.681Z,3.83
2023-02-25T04:08:30.441Z,3.80
2023-02-25T04:11:32.707Z,3.76
2023-02-25T04:14:34.331Z,3.72
2023-02-25T04:17:36.388Z,3.66
2023-02-25T04:20:38.362Z,3.53
2023-02-25T04:23:39.914Z,3.40
2023-02-25T04:26:41.534Z,3.27
2023-02-25T04:29:43.581Z,3.15
2023-02-25T04:32:45.293Z,3.03
2023-02-25T04:35:46.870Z,2.90
2023-02-25T04:38:48.415Z,2.76
2023-02-25T04:41:50.219Z,2.61
2023-02-25T04:44:51.729Z,2.49
2023-02-25T04:47:53.907Z,2.40
2023-02-25T04:50:55.490Z,2.30
2023-02-25T04:53:57.432Z,2.23
2023-02-25T04:56:59.052Z,2.19
2023-02-25T05:00:00.575Z,2.16
2023-02-25T05:03:02.103Z,2.14
2023-02-25T05:06:04.549Z,2.12
2023-02-25T05:09:06.958Z,2.10
2023-02-25T05:12:09.474Z,2.06
2023-02-25T05:15:11.549Z,2.01
2023-02-25T05:18:13.038Z,1.95
2023-02-25T05:21:25.849Z,1.90
2023-02-25T05:24:27.421Z,1.87
2023-02-25T05:27:29.065Z,1.86
2023-02-25T05:30:30.874Z,1.88
2023-02-25T05:33:32.508Z,1.91
2023-02-25T05:36:34.261Z,1.94
2023-02-25T05:39:36.426Z,1.98
2023-02-25T05:42:38.021Z,2.01
2023-02-25T05:45:39.603Z,2.00
2023-02-25T05:48:42.693Z,1.96
2023-02-25T05:51:44.262Z,1.92
2023-02-25T05:54:45.869Z,1.92
2023-02-25T05:57:47.418Z,1.91
2023-02-25T06:00:49.429Z,1.91
2023-02-25T06:03:51.811Z,1.91
2023-02-25T06:06:53.469Z,1.90
2023-02-25T06:09:55.071Z,1.90
2023-02-25T06:12:56.798Z,1.87
2023-02-25T06:15:58.410Z,1.86
2023-02-25T06:19:00.917Z,1.85
2023-02-25T06:22:02.502Z,1.84
2023-02-25T06:25:04.357Z,1.84
2023-02-25T06:28:05.962Z,1.84
2023-02-25T06:31:11.612Z,1.84
2023-02-25T06:34:13.191Z,1.84
2023-02-25T06:37:16.324Z,1.83
2023-02-25T06:40:18.346Z,1.81
2023-02-25T06:43:19.912Z,1.80
2023-02-25T06:46:24.419Z,1.78
2023-02-25T06:49:26.342Z,1.74
2023-02-25T06:52:28.618Z,1.70
2023-02-25T06:55:30.332Z,1.66
2023-02-25T06:58:32.287Z,1.63
2023-02-25T07:01:33.937Z,1.61
2023-02-25T07:04:35.452Z,1.59
2023-02-25T07:07:37.447Z,1.59
2023-02-25T07:10:39.049Z,1.60
2023-02-25T07:13:40.783Z,1.61
2023-02-25T07:16:42.497Z,1.69
2023-02-25T07:19:44.047Z,1.88
2023-02-25T07:22:45.938Z,2.64
2023-02-25T07:25:47.477Z,3.24
2023-02-25T07:28:49.201Z,3.50
2023-02-25T07:31:50.836Z,3.74
2023-02-25T07:34:52.700Z,3.73
2023-02-25T07:37:54.197Z,3.87
2023-02-25T07:40:55.754Z,3.94
2023-02-25T07:43:57.313Z,4.58
2023-02-25T07:46:58.772Z,5.12
2023-02-25T07:50:00.347Z,5.62
2023-02-25T07:53:01.929Z,6.01
2023-02-25T07:56:03.698Z,6.22
2023-02-25T07:59:05.465Z,6.40
2023-02-25T08:02:07.258Z,6.62
2023-02-25T08:05:09.140Z,6.35
2023-02-25T08:08:10.909Z,6.12
2023-02-25T08:11:14.447Z,5.97
2023-02-25T08:14:16.133Z,5.96
2023-02-25T08:17:17.963Z,6.09
2023-02-25T08:20:19.632Z,6.46
2023-02-25T08:23:21.190Z,6.53
2023-02-25T08:26:23.207Z,6.11
2023-02-25T08:29:24.828Z,5.76
2023-02-25T08:32:26.694Z,5.98
2023-02-25T08:35:28.540Z,6.21
2023-02-25T08:38:30.075Z,6.15
2023-02-25T08:41:31.521Z,6.31
2023-02-25T08:44:33.410Z,6.02
2023-02-25T08:47:34.916Z,5.73
2023-02-25T08:50:36.355Z,5.53
2023-02-25T08:53:39.062Z,5.41
2023-02-25T08:56:41.014Z,5.28
2023-02-25T08:59:42.892Z,5.08
2023-02-25T09:02:44.392Z,4.99
2023-02-25T09:05:59.812Z,4.96
2023-02-25T09:09:01.336Z,4.90
2023-02-25T09:12:02.941Z,4.88
2023-02-25T09:15:05.268Z,4.84
2023-02-25T09:18:07.158Z,4.76
2023-02-25T09:21:08.780Z,4.69
2023-02-25T09:24:10.524Z,4.66
2023-02-25T09:27:12.240Z,4.60
2023-02-25T09:30:14.789Z,4.30
2023-02-25T09:33:16.410Z,4.13
2023-02-25T09:36:18.846Z,4.20
2023-02-25T09:39:20.473Z,4.17
2023-02-25T09:42:22.726Z,4.20
2023-02-25T09:45:25.146Z,4.27
2023-02-25T09:48:31.475Z,4.50
2023-02-25T09:51:37.131Z,5.47
2023-02-25T09:54:44.413Z,6.19
2023-02-25T09:57:56.204Z,7.05
2023-02-25T10:01:10.092Z,7.60
2023-02-25T10:04:38.022Z,7.04
2023-02-25T10:07:51.809Z,6.21
2023-02-25T10:11:07.032Z,5.11
2023-02-25T10:14:23.368Z,4.26
2023-02-25T10:17:44.167Z,3.86
2023-02-25T10:20:57.029Z,4.22
2023-02-25T10:24:14.103Z,5.81
2023-02-25T10:27:30.237Z,6.20
2023-02-25T10:31:05.897Z,6.48
2023-02-25T10:34:23.399Z,6.63
2023-02-25T10:37:29.163Z,6.10
2023-02-25T10:40:30.859Z,6.06
2023-02-25T10:43:34.166Z,6.25
2023-02-25T10:46:40.431Z,6.49
2023-02-25T10:50:23.104Z,6.48
2023-02-25T10:53:26.198Z,6.94
2023-02-25T10:56:46.137Z,6.90
2023-02-25T10:59:47.786Z,6.62
2023-02-25T11:02:51.770Z,6.40
2023-02-25T11:06:18.224Z,6.52
2023-02-25T11:09:19.728Z,6.48
2023-02-25T11:12:21.376Z,6.20
2023-02-25T11:15:45.717Z,6.65
2023-02-25T11:18:53.041Z,7.51
2023-02-25T11:21:55.300Z,7.14
2023-02-25T11:25:01.824Z,7.45
2023-02-25T11:28:04.237Z,7.58
2023-02-25T11:31:16.978Z,7.49
2023-02-25T11:34:27.561Z,7.08
2023-02-25T11:37:43.300Z,6.68
2023-02-25T11:40:47.245Z,6.46
2023-02-25T11:43:49.058Z,6.50
2023-02-25T11:47:16.623Z,6.73
2023-02-25T11:50:27.869Z,6.48
2023-02-25T11:53:38.754Z,6.24
2023-02-25T11:56:43.390Z,5.80
2023-02-25T12:00:05.121Z,5.24
2023-02-25T12:03:22.424Z,4.48
2023-02-25T12:06:32.778Z,4.07
2023-02-25T12:10:02.752Z,3.90
2023-02-25T12:13:53.019Z,3.76
2023-02-25T12:17:19.082Z,3.44
2023-02-25T12:20:20.790Z,3.24
2023-02-25T12:23:28.078Z,3.34
2023-02-25T12:26:51.429Z,3.49
2023-02-25T12:30:27.548Z,3.37
2023-02-25T12:33:50.858Z,3.35
2023-02-25T12:37:03.121Z,3.74
2023-02-25T12:40:19.067Z,4.09
2023-02-25T12:43:26.830Z,4.26
2023-02-25T12:46:58.017Z,4.54
2023-02-25T12:50:25.870Z,4.85
2023-02-25T12:53:43.110Z,4.95
2023-02-25T12:56:53.948Z,4.77
2023-02-25T13:00:33.579Z,4.67
2023-02-25T13:03:54.411Z,4.56
2023-02-25T13:07:23.773Z,4.13
2023-02-25T13:10:37.410Z,2.94
2023-02-25T13:14:03.849Z,2.48
2023-02-25T13:17:25.686Z,2.59
2023-02-25T13:20:27.205Z,3.00
2023-02-25T13:23:36.168Z,3.03
2023-02-25T13:27:12.447Z,2.91
2023-02-25T13:30:23.272Z,2.84
2023-02-25T13:33:46.879Z,2.95
2023-02-25T13:37:07.592Z,3.11
2023-02-25T13:40:38.614Z,3.08
2023-02-25T13:43:51.896Z,3.00
2023-02-25T13:47:10.370Z,2.97
2023-02-25T13:50:27.477Z,3.23
2023-02-25T13:53:44.567Z,3.14
2023-02-25T13:56:55.658Z,3.00
2023-02-25T14:00:00.314Z,3.08
2023-02-25T14:03:32.091Z,3.33
2023-02-25T14:06:56.649Z,3.53
2023-02-25T14:10:32.892Z,3.52
2023-02-25T14:13:58.120Z,3.43
2023-02-25T14:17:21.818Z,3.34
2023-02-25T14:20:42.576Z,3.24
2023-02-25T14:23:55.977Z,3.13
2023-02-25T14:27:28.833Z,2.99
2023-02-25T14:31:12.722Z,2.81
2023-02-25T14:34:31.533Z,2.65
2023-02-25T14:37:48.437Z,2.49
2023-02-25T14:40:59.940Z,2.29
2023-02-25T14:44:06.657Z,2.04
2023-02-25T14:47:19.413Z,2.04
2023-02-25T14:50:26.441Z,2.16
2023-02-25T14:53:50.469Z,2.29
2023-02-25T14:57:07.881Z,2.50
2023-02-25T15:00:32.802Z,2.61
2023-02-25T15:03:52.291Z,2.71
2023-02-25T15:07:09.330Z,2.74
2023-02-25T15:10:22.990Z,2.60
2023-02-25T15:13:37.350Z,2.49
2023-02-25T15:16:56.062Z,2.38
2023-02-25T15:20:27.029Z,2.33
2023-02-25T15:23:45.323Z,2.58
2023-02-25T15:26:47.781Z,2.72
2023-02-25T15:29:57.166Z,2.95
2023-02-25T15:33:26.874Z,2.93
2023-02-25T15:36:41.841Z,2.75
2023-02-25T15:39:43.422Z,2.88
2023-02-25T15:42:54.962Z,2.48
2023-02-25T15:46:08.940Z,2.27
2023-02-25T15:49:16.933Z,2.32
2023-02-25T15:52:52.033Z,2.28
2023-02-25T15:56:13.616Z,2.16
2023-02-25T15:59:47.248Z,2.10
2023-02-25T16:02:53.227Z,2.03
2023-02-25T16:06:00.277Z,1.94
2023-02-25T16:09:12.522Z,1.82
2023-02-25T16:12:15.142Z,1.65
2023-02-25T16:15:31.119Z,1.52
2023-02-25T16:18:41.685Z,1.39
2023-02-25T16:21:48.122Z,1.31
2023-02-25T16:24:52.269Z,1.19
2023-02-25T16:28:04.536Z,1.10
2023-02-25T16:31:22.967Z,1.02
2023-02-25T16:34:33.189Z,1.00
2023-02-25T16:37:44.025Z,1.00
2023-02-25T16:40:45.778Z,1.01
2023-02-25T16:43:47.273Z,1.01
2023-02-25T16:46:53.483Z,1.01
2023-02-25T16:49:56.757Z,1.00
2023-02-25T16:52:58.887Z,1.01
2023-02-25T16:56:01.138Z,1.00
2023-02-25T16:59:08.862Z,0.99
2023-02-25T17:02:16.431Z,1.00
2023-02-25T17:05:36.862Z,1.04
2023-02-25T17:08:44.239Z,1.08
2023-02-25T17:11:51.248Z,1.12
2023-02-25T17:14:53.835Z,1.15
2023-02-25T17:18:24.073Z,1.17
2023-02-25T17:21:45.588Z,1.24
2023-02-25T17:24:47.250Z,1.28
2023-02-25T17:27:49.833Z,1.18
2023-02-25T17:30:52.083Z,1.19
2023-02-25T17:33:56.847Z,1.26
2023-02-25T17:37:01.165Z,1.32
2023-02-25T17:40:06.337Z,1.36
2023-02-25T17:43:14.093Z,1.39
2023-02-25T17:46:34.987Z,1.41
2023-02-25T17:49:37.552Z,1.38
2023-02-25T17:52:39.664Z,1.39
2023-02-25T17:55:41.269Z,1.36
2023-02-25T17:58:44.181Z,1.34
2023-02-25T18:01:47.619Z,1.34
2023-02-25T18:04:50.186Z,1.34
2023-02-25T18:07:57.752Z,1.35
2023-02-25T18:11:04.365Z,1.36
2023-02-25T18:14:44.488Z,1.34
2023-02-25T18:17:54.308Z,1.36
2023-02-25T18:20:57.834Z,1.37
2023-02-25T18:24:01.203Z,1.37
2023-02-25T18:27:07.224Z,1.36
2023-02-25T18:30:11.777Z,1.31
2023-02-25T18:33:13.544Z,1.21
2023-02-25T18:36:25.604Z,1.21
2023-02-25T18:39:27.646Z,1.22
2023-02-25T18:42:29.381Z,1.22
2023-02-25T18:45:32.912Z,1.23
2023-02-25T18:48:35.682Z,1.22
2023-02-25T18:51:37.268Z,1.21
2023-02-25T18:54:38.808Z,1.19
2023-02-25T18:57:40.720Z,1.20
2023-02-25T19:00:43.862Z,1.22
2023-02-25T19:03:45.590Z,1.21
2023-02-25T19:06:47.190Z,1.16
2023-02-25T19:09:49.115Z,1.18
2023-02-25T19:12:52.825Z,1.20
2023-02-25T19:15:54.495Z,1.21
2023-02-25T19:18:56.323Z,1.21
2023-02-25T19:21:58.979Z,1.18
2023-02-25T19:25:00.546Z,1.12
2023-02-25T19:28:02.697Z,1.07
2023-02-25T19:31:06.244Z,1.02
2023-02-25T19:34:08.069Z,0.97
2023-02-25T19:37:11.663Z,0.97
2023-02-25T19:40:15.982Z,0.99
2023-02-25T19:43:17.985Z,0.97
2023-02-25T19:46:19.553Z,0.91
2023-02-25T19:49:21.430Z,0.95
2023-02-25T19:52:23.137Z,0.96
2023-02-25T19:55:24.707Z,0.98
2023-02-25T19:58:26.464Z,0.96
2023-02-25T20:01:28.098Z,0.96
2023-02-25T20:04:30.180Z,0.99
2023-02-25T20:07:31.889Z,1.01
2023-02-25T20:10:33.349Z,0.99
2023-02-25T20:13:35.040Z,0.96
2023-02-25T20:16:36.571Z,0.97
2023-02-25T20:19:38.517Z,0.95
2023-02-25T20:22:40.160Z,0.89
2023-02-25T20:25:41.699Z,0.92
2023-02-25T20:28:43.311Z,0.92
2023-02-25T20:31:45.234Z,0.89
2023-02-25T20:34:47.084Z,0.86
2023-02-25T20:38:02.263Z,0.89
2023-02-25T20:41:04.036Z,0.90
2023-02-25T20:44:05.952Z,0.86
2023-02-25T20:47:08.211Z,0.86
2023-02-25T20:50:10.533Z,0.85
2023-02-25T20:53:12.209Z,0.79
2023-02-25T20:56:18.033Z,0.81
2023-02-25T20:59:19.573Z,0.79
2023-02-25T21:02:21.740Z,0.74
2023-02-25T21:05:23.356Z,0.73
2023-02-25T21:08:25.257Z,0.69
2023-02-25T21:11:27.128Z,0.66
2023-02-25T21:14:30.631Z,0.72
2023-02-25T21:17:32.218Z,0.74
2023-02-25T21:20:33.769Z,0.73
2023-02-25T21:23:36.891Z,0.72
2023-02-25T21:26:38.783Z,0.73
2023-02-25T21:29:40.339Z,0.74
2023-02-25T21:32:41.994Z,0.76
2023-02-25T21:35:45.313Z,0.76
2023-02-25T21:38:53.398Z,0.77
2023-02-25T21:41:55.002Z,0.76
2023-02-25T21:44:56.571Z,0.76
2023-02-25T21:47:58.189Z,0.75
2023-02-25T21:51:00.220Z,0.74
2023-02-25T21:54:02.454Z,0.73
2023-02-25T21:57:04.011Z,0.71
2023-02-25T22:00:06.173Z,0.70
2023-02-25T22:03:07.929Z,0.68
2023-02-25T22:06:09.513Z,0.65
2023-02-25T22:09:11.173Z,0.60
2023-02-25T22:12:13.327Z,0.56
2023-02-25T22:15:15.040Z,0.52
2023-02-25T22:18:16.611Z,0.51
2023-02-25T22:21:21.127Z,0.52
2023-02-25T22:24:22.766Z,0.54
2023-02-25T22:27:24.461Z,0.56
2023-02-25T22:30:25.990Z,0.56
2023-02-25T22:33:28.191Z,0.55
2023-02-25T22:36:29.811Z,0.53
2023-02-25T22:39:31.370Z,0.53
2023-02-25T22:42:32.946Z,0.51
2023-02-25T22:45:34.631Z,0.42
2023-02-25T22:48:37.858Z,0.31
2023-02-25T22:51:44.216Z,0.20
2023-02-25T22:54:46.169Z,0.08
2023-02-25T22:57:47.921Z,-0.03
2023-02-25T23:00:51.130Z,-0.06
2023-02-25T23:03:54.646Z,-0.03
2023-02-25T23:06:56.268Z,0.04
2023-02-25T23:09:57.832Z,0.08
2023-02-25T23:13:00.951Z,0.11
2023-02-25T23:16:03.191Z,0.15
2023-02-25T23:19:05.147Z,0.17
2023-02-25T23:22:06.755Z,0.18
2023-02-25T23:25:08.824Z,0.21
2023-02-25T23:28:10.453Z,0.24
2023-02-25T23:31:19.679Z,0.27
2023-02-25T23:34:23.390Z,0.30
2023-02-25T23:37:25.330Z,0.31
2023-02-25T23:40:27.040Z,0.32
2023-02-25T23:43:28.979Z,0.33
2023-02-25T23:46:32.410Z,0.34
2023-02-25T23:49:34.047Z,0.34
2023-02-25T23:52:35.883Z,0.34
2023-02-25T23:55:37.754Z,0.34
2023-02-25T23:58:39.542Z,0.35
